Time;durP1;ratioP1;P1;durP2;ratioP2;P2;SDS_P1;SDS_P2;PMS_P1;PMS_P2;Temp;Humidity;BMP_temperature;BMP_pressure;BME280_temperature;BME280_humidity;BME280_pressure;Samples;Min_cycle;Max_cycle;Signal;HPM_P1;HPM_P2
2023/02/12 00:01:17;;;;;;;22.30;15.40;;;;;;;0.77;95.68;99690.41;106806;1254;72309;-74
2023/02/12 00:03:46;;;;;;;19.00;14.50;;;;;;;0.85;95.55;99691.75;106098;1254;70249;-75
2023/02/12 00:06:15;;;;;;;19.90;14.50;;;;;;;0.88;95.51;99695.92;106000;1254;74245;-74
2023/02/12 00:08:43;;;;;;;18.80;15.00;;;;;;;0.84;95.76;99701.61;106012;1254;60396;-74
2023/02/12 00:11:15;;;;;;;17.90;13.30;;;;;;;0.80;95.77;99704.81;106313;1254;60524;-74
2023/02/12 00:13:43;;;;;;;18.30;13.00;;;;;;;0.84;95.44;99711.52;106193;1258;74666;-74
2023/02/12 00:16:13;;;;;;;17.20;12.90;;;;;;;0.89;95.31;99717.46;106444;1256;69235;-74
2023/02/12 00:18:42;;;;;;;16.30;11.40;;;;;;;0.91;95.62;99718.01;106508;1253;73735;-75
2023/02/12 00:21:11;;;;;;;15.70;11.80;;;;;;;0.89;95.68;99721.60;106670;1253;60415;-74
2023/02/12 00:23:41;;;;;;;15.00;11.20;;;;;;;0.88;95.71;99728.52;108179;1254;61374;-77
2023/02/12 00:26:13;;;;;;;14.70;11.50;;;;;;;0.95;95.28;99726.77;108846;1254;163869;-76
2023/02/12 00:29:26;;;;;;;13.80;10.70;;;;;;;1.04;95.00;99731.96;105103;1289;599670;-78
2023/02/12 00:31:54;;;;;;;13.70;11.20;;;;;;;1.03;95.32;99738.64;109257;1253;59303;-78
2023/02/12 00:34:32;;;;;;;13.10;9.70;;;;;;;1.03;95.21;99741.95;108843;1254;59204;-75
2023/02/12 00:37:01;;;;;;;11.30;9.10;;;;;;;1.11;95.07;99747.64;109054;1254;71243;-75
2023/02/12 00:39:29;;;;;;;11.20;9.50;;;;;;;1.18;94.55;99744.73;107373;1254;69511;-74
2023/02/12 00:41:57;;;;;;;13.30;10.00;;;;;;;1.15;94.90;99747.34;106138;1254;161046;-74
2023/02/12 00:44:26;;;;;;;13.00;10.50;;;;;;;1.12;95.33;99752.48;106456;1256;59782;-75
2023/02/12 00:46:56;;;;;;;12.80;9.80;;;;;;;1.12;95.61;99755.45;106766;1254;60115;-77
2023/02/12 00:49:24;;;;;;;11.10;9.40;;;;;;;1.22;95.48;99760.19;108247;1254;72285;-75
2023/02/12 00:51:52;;;;;;;12.30;9.70;;;;;;;1.28;94.95;99760.64;107750;1252;68096;-76
2023/02/12 00:54:20;;;;;;;11.40;8.70;;;;;;;1.25;95.01;99760.61;108676;1252;72413;-79
2023/02/12 00:56:49;;;;;;;11.40;9.00;;;;;;;1.23;95.28;99758.40;107984;1252;59666;-82
2023/02/12 00:59:22;;;;;;;11.20;8.50;;;;;;;1.22;95.17;99760.52;106643;1259;59536;-83
2023/02/12 01:01:53;;;;;;;9.70;7.20;;;;;;;1.28;94.93;99765.30;105898;1260;73704;-78
2023/02/12 01:04:21;;;;;;;11.00;8.00;;;;;;;1.30;94.74;99775.45;106004;1254;70579;-76
2023/02/12 01:06:50;;;;;;;9.80;8.00;;;;;;;1.27;94.81;99780.73;105797;1251;73572;-74
2023/02/12 01:09:23;;;;;;;11.40;8.20;;;;;;;1.24;94.80;99784.46;105985;1252;62370;-78
2023/02/12 01:11:52;;;;;;;8.20;6.60;;;;;;;1.30;94.70;99793.12;105850;1254;59843;-74
2023/02/12 01:14:20;;;;;;;9.30;7.70;;;;;;;1.35;94.50;99796.92;106027;1254;73262;-76
2023/02/12 01:16:49;;;;;;;8.50;7.10;;;;;;;1.34;94.85;99798.77;106175;1252;71573;-79
2023/02/12 01:19:20;;;;;;;9.50;6.90;;;;;;;1.29;94.69;99795.96;105967;1253;73527;-75
2023/02/12 01:21:48;;;;;;;7.60;5.70;;;;;;;1.32;94.45;99798.91;106347;1254;62145;-75
2023/02/12 01:24:18;;;;;;;7.30;5.90;;;;;;;1.37;94.32;99801.68;105830;1254;61245;-76
2023/02/12 01:26:49;;;;;;;9.50;7.20;;;;;;;1.34;94.18;99810.44;105784;1253;72677;-75
2023/02/12 01:29:18;;;;;;;8.90;7.00;;;;;;;1.27;94.36;99818.77;105909;1260;70059;-73
2023/02/12 01:31:46;;;;;;;11.60;9.50;;;;;;;1.23;94.40;99818.33;106037;1256;74435;-72
2023/02/12 01:34:16;;;;;;;7.70;6.80;;;;;;;1.27;94.07;99821.41;106144;1254;60822;-75
2023/02/12 01:36:46;;;;;;;6.90;6.00;;;;;;;1.27;94.05;99821.04;106470;1259;59609;-75
2023/02/12 01:39:16;;;;;;;8.10;7.00;;;;;;;1.20;93.82;99824.65;106600;1259;72929;-79
2023/02/12 01:41:49;;;;;;;6.70;5.80;;;;;;;1.15;93.96;99830.21;106169;1254;71212;-76
2023/02/12 01:44:24;;;;;;;6.90;5.20;;;;;;;1.21;93.75;99837.00;106161;1258;71082;-76
2023/02/12 01:46:55;;;;;;;7.00;5.50;;;;;;;1.29;93.47;99843.80;106309;1254;59895;-75
2023/02/12 01:49:26;;;;;;;7.20;4.60;;;;;;;1.27;93.74;99848.12;106291;1253;60136;-76
2023/02/12 01:52:03;;;;;;;6.60;5.30;;;;;;;1.22;93.90;99853.29;107287;1256;74264;-75
2023/02/12 01:54:33;;;;;;;5.90;4.90;;;;;;;1.20;94.03;99859.22;107471;1259;70479;-73
2023/02/12 01:57:02;;;;;;;5.90;4.60;;;;;;;1.28;93.85;99866.52;107462;1253;73555;-79
2023/02/12 01:59:31;;;;;;;4.80;4.10;;;;;;;1.35;93.55;99869.36;107090;1254;59620;-77
2023/02/12 02:02:03;;;;;;;5.40;4.30;;;;;;;1.32;93.58;99876.92;106916;1252;60225;-76
2023/02/12 02:04:36;;;;;;;6.20;4.80;;;;;;;1.28;93.63;99887.63;107479;1256;72983;-78
2023/02/12 02:07:05;;;;;;;6.00;4.70;;;;;;;1.28;93.33;99892.73;107125;1254;70112;-76
2023/02/12 02:09:34;;;;;;;9.00;5.40;;;;;;;1.33;93.05;99900.02;106664;1255;72903;-76
2023/02/12 02:14:51;;;;;;;6.60;5.10;;;;;;;1.26;92.72;99909.77;106104;1253;60623;-75
2023/02/12 02:17:26;;;;;;;6.20;4.70;;;;;;;1.23;92.64;99911.22;106022;1256;71850;-75
2023/02/12 02:20:23;;;;;;;6.40;4.80;;;;;;;1.30;92.52;99917.72;106186;1253;69533;-74
2023/02/12 02:22:52;;;;;;;7.10;5.50;;;;;;;1.27;92.03;99931.70;106978;1253;73849;-76
2023/02/12 02:25:29;;;;;;;6.40;4.70;;;;;;;1.20;92.36;99941.59;106974;1253;60106;-78
2023/02/12 02:28:35;;;;;;;5.50;3.70;;;;;;;1.16;92.27;99952.45;106414;1254;60407;-74
2023/02/12 02:31:20;;;;;;;4.70;3.00;;;;;;;1.25;91.92;99961.85;105637;1254;71168;-77
2023/02/12 02:34:11;;;;;;;3.10;2.10;;;;;;;1.22;91.92;99968.85;105702;1254;69996;-76
2023/02/12 02:36:43;;;;;;;2.50;2.10;;;;;;;1.09;91.99;99974.95;105791;1254;71615;-78
2023/02/12 02:39:37;;;;;;;2.30;1.50;;;;;;;0.95;91.75;99989.13;105740;1259;59650;-75
2023/02/12 02:42:22;;;;;;;2.60;1.40;;;;;;;0.93;91.03;99997.83;106084;1256;59835;-75
2023/02/12 02:44:57;;;;;;;2.30;1.50;;;;;;;0.86;90.57;100000.90;105665;1255;73346;-70
2023/02/12 02:47:31;;;;;;;2.20;1.50;;;;;;;0.72;89.27;100006.81;105779;1254;69838;-74
2023/02/12 02:50:05;;;;;;;;;;;;;;;0.58;88.71;100009.64;106017;1254;70484;-72
2023/02/12 02:52:49;;;;;;;2.10;1.00;;;;;;;0.54;87.97;100010.90;105798;1256;61133;-73
2023/02/12 02:55:19;;;;;;;2.30;1.00;;;;;;;0.43;85.37;100016.64;105966;1260;61851;-71
2023/02/12 02:57:51;;;;;;;1.80;1.20;;;;;;;0.27;85.11;100026.59;107311;1254;73694;-73
2023/02/12 03:00:54;;;;;;;2.10;1.10;;;;;;;0.11;85.49;100034.10;107377;1257;70429;-72
2023/02/12 03:03:42;;;;;;;2.90;1.40;;;;;;;0.08;85.67;100047.08;105924;1257;70489;-72
2023/02/12 03:06:19;;;;;;;1.30;1.00;;;;;;;0.11;85.77;100059.75;105696;1253;59727;-72
2023/02/12 03:08:54;;;;;;;2.80;1.30;;;;;;;0.08;86.12;100071.06;105930;1254;59727;-74
2023/02/12 03:11:29;;;;;;;2.50;1.20;;;;;;;0.02;86.32;100074.91;105813;1254;72992;-74
2023/02/12 03:14:08;;;;;;;3.40;1.40;;;;;;;-0.03;86.37;100087.08;105829;1256;70379;-71
2023/02/12 03:17:08;;;;;;;2.30;1.20;;;;;;;-0.07;86.02;100091.52;105771;1254;72361;-73
2023/02/12 03:19:42;;;;;;;2.00;1.10;;;;;;;-0.02;85.29;100097.98;105610;1254;60363;-74
2023/02/12 03:22:15;;;;;;;;;;;;;;;-0.03;84.79;100107.27;105615;1254;59733;-71
2023/02/12 03:24:47;;;;;;;1.50;1.30;;;;;;;-0.13;84.63;100114.82;105747;1257;72599;-72
2023/02/12 03:27:18;;;;;;;1.50;1.00;;;;;;;-0.24;84.30;100122.06;105563;1254;71425;-72
2023/02/12 03:29:47;;;;;;;1.80;1.20;;;;;;;-0.26;84.28;100131.22;105656;1254;71804;-75
2023/02/12 03:32:37;;;;;;;1.90;1.10;;;;;;;-0.25;84.26;100141.79;106637;1253;59788;-75
2023/02/12 03:35:22;;;;;;;1.80;0.90;;;;;;;-0.33;84.30;100151.29;106229;1254;59724;-76
2023/02/12 03:38:04;;;;;;;2.00;1.30;;;;;;;-0.40;84.49;100160.80;106364;1257;71123;-74
2023/02/12 03:40:36;;;;;;;2.60;1.10;;;;;;;-0.45;84.52;100175.66;107180;1256;68312;-76
2023/02/12 03:43:13;;;;;;;1.80;0.90;;;;;;;-0.37;84.25;100178.00;105941;1257;70419;-74
2023/02/12 03:45:55;;;;;;;2.30;1.70;;;;;;;-0.30;84.13;100189.77;105540;1253;59694;-76
2023/02/12 03:48:42;;;;;;;2.90;2.00;;;;;;;-0.33;84.54;100198.48;105983;1254;60487;-78
2023/02/12 03:51:19;;;;;;;2.30;1.40;;;;;;;-0.39;84.13;100202.31;105852;1256;73270;-76
2023/02/12 03:53:47;;;;;;;6.10;3.40;;;;;;;-0.48;82.35;100208.54;105670;1254;71811;-73
2023/02/12 03:56:44;;;;;;;3.00;2.60;;;;;;;-0.48;82.18;100208.41;108031;1254;72459;-76
2023/02/12 03:59:12;;;;;;;3.00;2.00;;;;;;;-0.51;81.44;100219.89;109185;1253;58735;-81
2023/02/12 04:01:41;;;;;;;2.30;1.40;;;;;;;-0.62;80.42;100226.36;108806;1253;60044;-83
2023/02/12 04:04:10;;;;;;;1.80;1.00;;;;;;;-0.73;79.71;100237.23;108473;1254;73772;-81
2023/02/12 04:06:40;;;;;;;2.70;1.10;;;;;;;-0.83;79.69;100240.23;108206;1254;70297;-82
2023/02/12 04:09:09;;;;;;;1.70;1.10;;;;;;;-0.91;79.61;100246.94;109382;1254;72595;-83
2023/02/12 04:12:08;;;;;;;1.50;0.80;;;;;;;-0.87;79.28;100256.63;109660;1256;59982;-82
2023/02/12 04:14:46;;;;;;;3.20;1.00;;;;;;;-0.91;78.51;100262.22;109617;1252;60423;-81
2023/02/12 04:17:39;;;;;;;2.40;1.00;;;;;;;-1.02;77.95;100265.60;109635;1253;73052;-84
2023/02/12 04:20:41;;;;;;;1.20;0.80;;;;;;;-1.10;77.83;100277.83;109479;1253;70398;-78
2023/02/12 04:23:16;;;;;;;3.20;0.90;;;;;;;-1.15;78.01;100283.86;109265;1254;72640;-82
2023/02/12 04:26:01;;;;;;;3.30;1.00;;;;;;;-1.09;77.43;100289.95;109141;1252;60187;-78
2023/02/12 04:28:49;;;;;;;4.50;1.20;;;;;;;-1.09;77.30;100297.79;109475;1253;58447;-78
2023/02/12 04:31:22;;;;;;;1.70;1.00;;;;;;;-1.16;77.09;100300.42;108859;1252;72831;-79
2023/02/12 04:34:14;;;;;;;2.10;1.00;;;;;;;-1.23;76.51;100300.58;109216;1253;68954;-79
2023/02/12 04:37:10;;;;;;;2.20;0.90;;;;;;;-1.30;75.99;100306.54;109407;1253;72951;-80
2023/02/12 04:39:38;;;;;;;3.50;1.40;;;;;;;-1.33;75.26;100315.86;109529;1253;59221;-79
2023/02/12 04:42:06;;;;;;;3.00;0.90;;;;;;;-1.27;74.95;100321.84;109428;1253;60048;-82
2023/02/12 04:44:40;;;;;;;3.40;1.20;;;;;;;-1.31;74.79;100322.19;109323;1253;72147;-77
2023/02/12 04:47:14;;;;;;;2.80;1.30;;;;;;;-1.37;74.79;100320.27;109476;1253;69398;-72
2023/02/12 04:49:42;;;;;;;2.40;1.30;;;;;;;-1.46;74.21;100325.54;109349;1253;72347;-74
2023/02/12 04:52:13;;;;;;;2.00;0.90;;;;;;;-1.53;74.12;100326.61;109204;1253;60437;-81
2023/02/12 04:54:41;;;;;;;1.80;0.70;;;;;;;-1.60;74.14;100335.10;109019;1252;59148;-81
2023/02/12 04:57:09;;;;;;;3.00;1.20;;;;;;;-1.54;74.50;100343.14;109044;1253;73088;-82
2023/02/12 04:59:37;;;;;;;2.30;1.20;;;;;;;-1.52;74.36;100348.96;108547;1253;69624;-74
2023/02/12 05:02:05;;;;;;;4.10;1.10;;;;;;;-1.57;74.43;100356.66;108649;1253;72671;-76
2023/02/12 05:04:35;;;;;;;1.60;1.00;;;;;;;-1.62;74.80;100357.44;109209;1253;58225;-74
2023/02/12 05:07:03;;;;;;;3.40;1.10;;;;;;;-1.65;74.56;100365.08;109381;1253;59262;-75
2023/02/12 05:09:31;;;;;;;2.30;1.10;;;;;;;-1.67;74.77;100372.46;109524;1254;73832;-74
2023/02/12 05:12:09;;;;;;;3.20;1.10;;;;;;;-1.68;74.70;100377.73;109556;1252;70268;-76
2023/02/12 05:14:37;;;;;;;2.80;1.20;;;;;;;-1.60;74.64;100383.95;109489;1253;72486;-73
2023/02/12 05:17:06;;;;;;;2.90;1.70;;;;;;;-1.53;74.71;100391.91;109467;1252;58565;-73
2023/02/12 05:19:37;;;;;;;3.60;1.50;;;;;;;-1.56;74.91;100399.89;109455;1253;60282;-73
2023/02/12 05:22:11;;;;;;;2.90;1.30;;;;;;;-1.60;74.80;100407.38;106702;1254;73528;-73
2023/02/12 05:24:40;;;;;;;2.90;1.30;;;;;;;-1.66;75.10;100410.77;105895;1254;70956;-74
2023/02/12 05:27:08;;;;;;;3.10;1.40;;;;;;;-1.70;75.18;100410.46;106006;1254;72153;-72
2023/02/12 05:29:36;;;;;;;3.00;1.70;;;;;;;-1.77;75.19;100414.78;105975;1254;60431;-71
2023/02/12 05:32:05;;;;;;;3.00;1.40;;;;;;;-1.84;75.35;100421.52;105998;1254;60533;-72
2023/02/12 05:34:34;;;;;;;3.20;1.40;;;;;;;-1.77;75.47;100435.11;106262;1254;75057;-71
2023/02/12 05:37:02;;;;;;;3.20;1.20;;;;;;;-1.71;75.25;100440.94;105995;1252;70156;-71
2023/02/12 05:39:31;;;;;;;2.50;1.10;;;;;;;-1.76;74.29;100447.74;106015;1256;71705;-73
2023/02/12 05:41:59;;;;;;;4.10;1.50;;;;;;;-1.85;73.77;100451.77;105970;1254;61014;-73
2023/02/12 05:44:27;;;;;;;2.70;1.00;;;;;;;-1.93;73.51;100455.66;106009;1256;60351;-72
2023/02/12 05:46:55;;;;;;;2.60;1.40;;;;;;;-2.02;72.95;100467.50;106336;1256;74855;-74
2023/02/12 05:49:24;;;;;;;3.10;1.20;;;;;;;-2.09;73.11;100463.34;106290;1259;70749;-70
2023/02/12 05:51:52;;;;;;;3.20;1.10;;;;;;;-2.17;72.91;100472.50;105579;1257;71667;-74
2023/02/12 05:54:20;;;;;;;3.30;1.00;;;;;;;-2.11;72.82;100480.95;105578;1253;60566;-71
2023/02/12 05:56:48;;;;;;;2.90;1.00;;;;;;;-2.09;72.85;100484.70;105678;1252;60450;-72
2023/02/12 05:59:19;;;;;;;4.80;1.60;;;;;;;-2.16;72.81;100481.52;105655;1256;73438;-73
2023/02/12 06:01:49;;;;;;;3.50;1.10;;;;;;;-2.24;72.78;100485.83;105661;1254;69812;-70
2023/02/12 06:04:22;;;;;;;2.80;1.30;;;;;;;-2.30;72.27;100491.86;105655;1253;75684;-71
2023/02/12 06:06:52;;;;;;;2.70;1.30;;;;;;;-2.38;72.15;100498.08;106255;1254;60529;-72
2023/02/12 06:09:21;;;;;;;3.70;2.50;;;;;;;-2.40;72.40;100500.61;106406;1254;60437;-73
2023/02/12 06:11:48;;;;;;;2.80;1.50;;;;;;;-2.30;72.68;100504.66;105545;1254;72743;-69
2023/02/12 06:14:17;;;;;;;3.20;1.50;;;;;;;-2.24;72.88;100516.23;105424;1254;69956;-71
2023/02/12 06:16:51;;;;;;;4.90;2.70;;;;;;;-2.21;72.92;100519.54;105890;1257;72957;-68
2023/02/12 06:19:20;;;;;;;5.00;1.90;;;;;;;-2.17;72.57;100522.86;105699;1257;60466;-72
2023/02/12 06:21:49;;;;;;;2.50;1.30;;;;;;;-2.14;72.64;100526.91;105951;1254;61163;-74
2023/02/12 06:24:17;;;;;;;3.60;1.50;;;;;;;-2.13;72.71;100532.77;105895;1259;72620;-73
2023/02/12 06:26:48;;;;;;;6.60;1.80;;;;;;;-2.10;72.78;100536.11;105925;1254;69641;-73
2023/02/12 06:29:19;;;;;;;2.80;1.60;;;;;;;-2.08;72.65;100543.29;105972;1254;71799;-73
2023/02/12 06:31:47;;;;;;;2.30;1.10;;;;;;;-1.93;72.63;100544.52;106032;1253;60441;-74
2023/02/12 06:34:17;;;;;;;2.60;1.50;;;;;;;-1.80;72.39;100550.19;106016;1253;61528;-71
2023/02/12 06:36:45;;;;;;;4.80;1.60;;;;;;;-1.76;72.55;100542.90;105944;1254;73006;-69
2023/02/12 06:39:14;;;;;;;2.70;1.30;;;;;;;-1.75;72.26;100548.79;106019;1254;71313;-72
2023/02/12 06:41:43;;;;;;;2.80;1.30;;;;;;;-1.74;72.21;100552.88;105543;1256;71984;-71
2023/02/12 06:44:11;;;;;;;5.20;1.40;;;;;;;-1.72;72.04;100554.36;105957;1256;60431;-67
2023/02/12 06:46:39;;;;;;;3.40;1.50;;;;;;;-1.71;71.91;100557.27;105742;1253;61304;-67
2023/02/12 06:49:09;;;;;;;4.20;1.70;;;;;;;-1.70;72.08;100560.16;105511;1256;74194;-67
2023/02/12 06:51:40;;;;;;;3.90;1.80;;;;;;;-1.57;72.27;100567.02;105531;1254;70583;-71
2023/02/12 06:54:12;;;;;;;4.20;1.60;;;;;;;-1.46;72.18;100565.84;105852;1256;71277;-69
2023/02/12 06:56:40;;;;;;;3.90;1.20;;;;;;;-1.43;72.03;100568.48;105643;1254;60439;-67
2023/02/12 06:59:13;;;;;;;5.00;2.40;;;;;;;-1.40;71.90;100568.16;105639;1254;60415;-71
2023/02/12 07:01:45;;;;;;;6.90;3.20;;;;;;;-1.35;71.84;100574.05;105683;1254;74729;-71
2023/02/12 07:04:14;;;;;;;3.90;1.60;;;;;;;-1.31;71.60;100577.67;105752;1256;70886;-71
2023/02/12 07:06:43;;;;;;;2.10;1.40;;;;;;;-1.28;71.29;100583.95;105522;1259;70859;-67
2023/02/12 07:09:11;;;;;;;4.80;2.30;;;;;;;-1.25;71.24;100584.33;105773;1254;62323;-72
2023/02/12 07:11:39;;;;;;;3.90;1.80;;;;;;;-1.13;71.24;100588.48;106043;1254;60592;-70
2023/02/12 07:14:14;;;;;;;2.70;1.50;;;;;;;-1.05;71.15;100591.39;105977;1256;74519;-69
2023/02/12 07:16:42;;;;;;;3.30;1.30;;;;;;;-1.05;70.81;100598.54;105447;1254;69821;-69
2023/02/12 07:19:12;;;;;;;3.60;1.60;;;;;;;-1.06;70.72;100603.59;105736;1257;73211;-72
2023/02/12 07:21:40;;;;;;;2.50;1.10;;;;;;;-1.07;69.72;100609.77;105676;1254;60446;-69
2023/02/12 07:24:11;;;;;;;3.00;1.10;;;;;;;-1.09;69.52;100616.45;105817;1254;61260;-70
2023/02/12 07:26:40;;;;;;;4.10;1.40;;;;;;;-1.11;69.68;100609.25;105689;1257;74480;-72
2023/02/12 07:29:08;;;;;;;4.10;1.50;;;;;;;-1.12;69.61;100610.67;105867;1254;68145;-72
2023/02/12 07:31:36;;;;;;;3.80;1.30;;;;;;;-1.12;69.88;100616.77;106033;1254;73749;-71
2023/02/12 07:34:06;;;;;;;2.80;1.30;;;;;;;-1.06;69.78;100620.48;105891;1255;60545;-70
2023/02/12 07:36:35;;;;;;;4.50;1.40;;;;;;;-0.89;69.32;100613.23;105938;1256;60434;-71
2023/02/12 07:39:04;;;;;;;3.90;2.00;;;;;;;-0.79;69.37;100612.40;106007;1256;75094;-76
2023/02/12 07:41:34;;;;;;;5.40;1.90;;;;;;;-0.76;69.11;100610.69;105831;1260;71542;-76
2023/02/12 07:44:09;;;;;;;3.10;1.70;;;;;;;-0.75;68.16;100611.68;105991;1254;72838;-69
2023/02/12 07:46:42;;;;;;;1.90;1.20;;;;;;;-0.77;67.90;100615.46;105751;1254;60553;-70
2023/02/12 07:49:17;;;;;;;5.70;1.70;;;;;;;-0.80;67.81;100626.04;105662;1254;61064;-69
2023/02/12 07:51:45;;;;;;;5.40;2.80;;;;;;;-0.79;68.22;100626.16;105563;1254;72628;-69
2023/02/12 07:54:17;;;;;;;4.20;2.00;;;;;;;-0.77;67.92;100630.57;105750;1258;69491;-70
2023/02/12 07:56:46;;;;;;;5.20;2.20;;;;;;;-0.75;68.21;100630.48;105666;1256;73530;-70
2023/02/12 07:59:16;;;;;;;3.70;1.90;;;;;;;-0.72;67.40;100644.25;105682;1254;61608;-70
2023/02/12 08:01:46;;;;;;;3.20;1.00;;;;;;;-0.63;67.13;100638.96;105743;1254;61418;-80
2023/02/12 08:04:16;;;;;;;2.90;1.30;;;;;;;-0.58;67.12;100643.58;106099;1254;74116;-72
2023/02/12 08:06:46;;;;;;;2.30;1.20;;;;;;;-0.55;66.73;100652.17;106205;1254;71570;-71
2023/02/12 08:09:16;;;;;;;2.60;1.10;;;;;;;-0.57;66.30;100650.84;106742;1254;71745;-74
2023/02/12 08:11:45;;;;;;;2.80;1.30;;;;;;;-0.58;66.48;100660.63;106034;1253;60371;-71
2023/02/12 08:14:16;;;;;;;2.30;1.20;;;;;;;-0.57;65.55;100657.66;106405;1254;61217;-70
2023/02/12 08:16:45;;;;;;;3.00;1.40;;;;;;;-0.52;65.62;100666.80;105919;1256;73912;-71
2023/02/12 08:19:13;;;;;;;2.70;1.50;;;;;;;-0.47;65.31;100666.86;105974;1259;69187;-72
2023/02/12 08:21:51;;;;;;;4.30;1.40;;;;;;;-0.40;65.65;100667.76;105963;1254;73446;-73
2023/02/12 08:24:20;;;;;;;2.30;1.40;;;;;;;-0.33;65.68;100670.38;106147;1254;60334;-71
2023/02/12 08:26:49;;;;;;;3.30;1.20;;;;;;;-0.26;65.62;100671.57;106333;1254;60535;-74
2023/02/12 08:29:20;;;;;;;3.00;1.50;;;;;;;-0.22;65.63;100674.88;106099;1256;72865;-75
2023/02/12 08:32:00;;;;;;;2.90;1.50;;;;;;;-0.17;65.42;100678.50;105934;1254;68637;-73
2023/02/12 08:34:35;;;;;;;2.30;1.30;;;;;;;-0.14;64.71;100685.66;105854;1254;72225;-73
2023/02/12 08:37:04;;;;;;;2.50;1.10;;;;;;;-0.13;64.96;100690.67;105939;1254;60629;-74
2023/02/12 08:39:32;;;;;;;5.20;1.60;;;;;;;-0.14;64.68;100691.90;106096;1254;60733;-76
2023/02/12 08:42:01;;;;;;;3.70;1.40;;;;;;;-0.12;65.15;100694.59;105552;1254;73859;-74
2023/02/12 08:44:30;;;;;;;2.20;1.00;;;;;;;-0.06;65.73;100695.16;106039;1254;71363;-73
2023/02/12 08:47:01;;;;;;;2.00;1.20;;;;;;;0.01;66.01;100702.15;105711;1256;73257;-73
2023/02/12 08:49:31;;;;;;;2.60;1.30;;;;;;;0.09;66.47;100700.48;105725;1255;60548;-74
2023/02/12 08:52:00;;;;;;;6.70;3.30;;;;;;;0.23;66.60;100704.19;105839;1254;60426;-72
2023/02/12 08:54:29;;;;;;;5.80;3.30;;;;;;;0.35;66.29;100703.55;105931;1257;72892;-72
2023/02/12 08:56:59;;;;;;;9.00;5.80;;;;;;;0.43;65.92;100704.33;105671;1262;68395;-72
2023/02/12 08:59:28;;;;;;;5.10;2.80;;;;;;;0.52;66.23;100705.80;105956;1256;73492;-71
2023/02/12 09:01:59;;;;;;;2.50;1.40;;;;;;;0.64;65.21;100713.90;105948;1256;60873;-73
2023/02/12 09:04:28;;;;;;;2.90;1.40;;;;;;;0.73;64.86;100719.38;106022;1253;60776;-71
2023/02/12 09:06:58;;;;;;;3.20;1.20;;;;;;;0.86;64.39;100732.78;105662;1256;74108;-70
2023/02/12 09:09:26;;;;;;;3.50;1.60;;;;;;;1.02;64.09;100736.66;106111;1254;70143;-72
2023/02/12 09:11:54;;;;;;;3.10;1.40;;;;;;;1.19;65.12;100729.47;106232;1253;72613;-71
2023/02/12 09:14:23;;;;;;;3.00;1.30;;;;;;;1.40;64.66;100719.89;105769;1254;60522;-71
2023/02/12 09:16:52;;;;;;;3.10;1.60;;;;;;;1.64;63.05;100729.59;106285;1256;60559;-71
2023/02/12 09:19:20;;;;;;;2.80;1.50;;;;;;;1.81;62.36;100731.23;105483;1256;74281;-71
2023/02/12 09:21:53;;;;;;;3.30;1.60;;;;;;;2.03;63.35;100733.79;105961;1259;70442;-72
2023/02/12 09:24:24;;;;;;;3.10;1.60;;;;;;;2.39;63.08;100730.83;106437;1256;72771;-74
2023/02/12 09:26:53;;;;;;;3.60;1.80;;;;;;;2.85;62.18;100734.54;106321;1255;60423;-72
2023/02/12 09:29:22;;;;;;;4.70;1.70;;;;;;;3.34;62.16;100735.16;105908;1254;60476;-73
2023/02/12 09:31:51;;;;;;;4.00;2.00;;;;;;;3.89;60.54;100740.38;106026;1257;74791;-71
2023/02/12 09:34:23;;;;;;;3.50;1.70;;;;;;;4.41;58.25;100741.46;105887;1254;69755;-71
2023/02/12 09:36:51;;;;;;;4.10;2.10;;;;;;;4.92;57.42;100744.16;105707;1254;73615;-71
2023/02/12 09:39:20;;;;;;;3.00;1.60;;;;;;;5.43;53.77;100747.94;105751;1254;60445;-71
2023/02/12 09:41:57;;;;;;;2.80;1.40;;;;;;;5.84;53.36;100748.10;105834;1254;60580;-70
2023/02/12 09:44:41;;;;;;;4.60;1.50;;;;;;;6.28;51.85;100750.16;106248;1258;73113;-73
2023/02/12 09:47:42;;;;;;;2.50;1.50;;;;;;;6.74;51.89;100748.39;106142;1254;71538;-73
2023/02/12 09:50:35;;;;;;;2.70;1.40;;;;;;;7.22;50.76;100747.14;106246;1260;71685;-71
2023/02/12 09:53:03;;;;;;;3.20;1.60;;;;;;;7.71;51.19;100744.61;105967;1259;60758;-72
2023/02/12 09:55:33;;;;;;;2.10;1.70;;;;;;;8.18;48.35;100730.73;106276;1254;60533;-71
2023/02/12 09:58:04;;;;;;;2.70;1.70;;;;;;;8.52;48.12;100728.24;106056;1259;75076;-72
2023/02/12 10:00:32;;;;;;;3.20;2.00;;;;;;;8.96;48.36;100736.45;106162;1254;71632;-72
2023/02/12 10:03:02;;;;;;;5.10;1.80;;;;;;;9.44;47.81;100725.54;108523;1254;72375;-70
2023/02/12 10:05:48;;;;;;;2.00;1.70;;;;;;;10.01;48.33;100718.43;108837;1254;60213;-72
2023/02/12 10:08:41;;;;;;;3.00;2.00;;;;;;;10.71;45.21;100722.98;107149;1254;60511;-71
2023/02/12 10:11:24;;;;;;;3.40;2.10;;;;;;;11.06;45.35;100731.01;108635;1257;73934;-70
2023/02/12 10:14:08;;;;;;;3.20;1.70;;;;;;;11.50;43.34;100735.23;108722;1254;70543;-70
2023/02/12 10:17:11;;;;;;;1.80;1.40;;;;;;;11.90;43.21;100729.20;107961;1254;72880;-71
2023/02/12 10:19:59;;;;;;;3.30;2.00;;;;;;;12.45;45.22;100728.75;107726;1254;61143;-72
2023/02/12 10:22:43;;;;;;;3.20;2.00;;;;;;;13.17;42.58;100729.71;107493;1254;60942;-71
2023/02/12 10:25:49;;;;;;;2.90;1.90;;;;;;;13.68;39.95;100731.05;107376;1254;73211;-68
2023/02/12 10:28:32;;;;;;;3.40;1.80;;;;;;;13.87;37.29;100737.36;107369;1254;70389;-71
2023/02/12 10:31:07;;;;;;;2.80;1.90;;;;;;;13.83;39.34;100731.95;107411;1254;73727;-70
2023/02/12 10:33:47;;;;;;;5.00;4.40;;;;;;;13.89;37.68;100727.41;107392;1260;60545;-74
2023/02/12 10:36:28;;;;;;;5.60;5.10;;;;;;;13.80;37.70;100741.02;107106;1254;59682;-71
2023/02/12 10:39:17;;;;;;;3.50;3.20;;;;;;;14.01;37.62;100741.60;107270;1253;73601;-70
2023/02/12 10:41:56;;;;;;;3.80;2.60;;;;;;;14.30;37.29;100746.42;106387;1254;71490;-71
2023/02/12 10:44:26;;;;;;;4.30;2.80;;;;;;;14.58;38.55;100744.44;105902;1257;71969;-71
2023/02/12 10:46:54;;;;;;;4.90;3.00;;;;;;;15.00;36.58;100746.08;105754;1259;60537;-69
2023/02/12 10:49:23;;;;;;;3.40;3.10;;;;;;;15.30;37.71;100751.32;105633;1256;61537;-68
2023/02/12 10:51:52;;;;;;;3.80;3.50;;;;;;;15.63;36.65;100749.45;105522;1257;73931;-69
2023/02/12 10:54:34;;;;;;;2.90;2.50;;;;;;;15.98;35.87;100747.94;107251;1254;70821;-69
2023/02/12 10:57:09;;;;;;;3.50;2.30;;;;;;;16.17;34.57;100745.91;106026;1254;71774;-70
2023/02/12 10:59:39;;;;;;;2.50;1.90;;;;;;;16.03;33.86;100755.80;105956;1257;60527;-69
2023/02/12 11:02:25;;;;;;;3.00;2.20;;;;;;;15.85;33.64;100763.77;105861;1257;60336;-68
2023/02/12 11:04:53;;;;;;;3.90;2.70;;;;;;;15.93;33.57;100771.13;105847;1259;73044;-69
2023/02/12 11:07:23;;;;;;;2.50;2.10;;;;;;;16.05;33.77;100772.35;105697;1257;69549;-69
2023/02/12 11:09:53;;;;;;;2.00;1.60;;;;;;;16.18;32.67;100778.00;105694;1256;72115;-70
2023/02/12 11:12:36;;;;;;;2.20;2.00;;;;;;;16.23;33.04;100784.00;105650;1253;60906;-69
2023/02/12 11:15:15;;;;;;;2.50;1.80;;;;;;;16.40;33.02;100785.94;105447;1262;60416;-69
2023/02/12 11:17:45;;;;;;;2.90;2.20;;;;;;;16.53;31.32;100784.16;105690;1254;74041;-70
2023/02/12 11:20:16;;;;;;;2.80;1.90;;;;;;;16.54;32.63;100787.12;105652;1254;70672;-69
2023/02/12 11:22:58;;;;;;;2.60;2.10;;;;;;;16.82;31.53;100785.58;105588;1255;73009;-70
2023/02/12 11:25:29;;;;;;;2.80;2.10;;;;;;;16.84;30.98;100787.75;105658;1256;60585;-70
2023/02/12 11:28:02;;;;;;;2.40;1.80;;;;;;;16.86;32.16;100788.98;105486;1260;61050;-69
2023/02/12 11:30:32;;;;;;;3.00;2.20;;;;;;;17.11;30.75;100782.74;105682;1254;74852;-70
2023/02/12 11:33:20;;;;;;;2.20;1.70;;;;;;;16.98;31.04;100787.36;106060;1259;71701;-71
2023/02/12 11:35:50;;;;;;;2.00;1.60;;;;;;;16.90;30.57;100787.16;105898;1254;72932;-72
2023/02/12 11:38:27;;;;;;;3.20;2.10;;;;;;;17.04;31.01;100778.71;105872;1259;60863;-73
2023/02/12 11:40:57;;;;;;;1.60;1.50;;;;;;;17.30;29.70;100780.22;105494;1254;60530;-71
2023/02/12 11:43:28;;;;;;;2.30;2.00;;;;;;;17.40;29.95;100773.33;105931;1254;72998;-68
2023/02/12 11:45:56;;;;;;;2.90;1.80;;;;;;;17.70;29.71;100780.14;105468;1254;70629;-71
2023/02/12 11:48:31;;;;;;;2.30;1.80;;;;;;;18.02;29.43;100775.95;105984;1259;72728;-68
2023/02/12 11:51:01;;;;;;;3.40;2.10;;;;;;;18.31;29.59;100779.61;105607;1258;60454;-70
2023/02/12 11:53:34;;;;;;;2.30;1.60;;;;;;;18.58;28.86;100776.86;105574;1260;60540;-71